首页
METAR-TAF:

METAR-TAF

机场 :

熊本機場

熊本, 日本

纬度: 32-50N, 经度: 130-51E, 海拔: 193米

当前天气观测

该预报发布于4小时和19分钟前的12:00 UTC
风速6节,风向东北
温度 3°C
湿度 87%
气压 1026 hPa
能见度10公里或以上
1500米以下无云,无积雨云

METAR: RJFT 121200Z 04006KT CAVOK 03/01 Q1026

时间: 01:19 (16:19 UTC)

预报

该预报发布于5小时和14分钟前的11:05 UTC
预报有效从12日的 12点(UTC)到 13日的 18点(UTC)
风速4节,风向东转东北
能见度10公里或以上
少量云层高于4000英尺
成为
从 13日的 00点(UTC)到 13日的 03点(UTC)
风速5节,风向西转西南
成为
从 13日的 06点(UTC)到 13日的 09点(UTC)
风速5节,风向东转东北

TAF: RJFT 121105Z 1212/1318 06004KT 9999 FEW040 BECMG 1300/1303 24005KT BECMG 1306/1309 06005KT

超过4000个机场的气象观测和天气预报(METAR&TAF报告)。

可查询的气象台以黄色和红色小点在地图上表示。

将鼠标移到小点上方,可查看气象台名称。

然后点击查看天气观测和预报。

如需切换地图:点击带黑十字的绿色按钮放大地图;点击带横线的绿色按钮缩小地图;或者点击绿色箭头查看邻近地区的地图。


METAR-TAF: